Time;durP1;ratioP1;P1;durP2;ratioP2;P2;SDS_P1;SDS_P2;PMS_P1;PMS_P2;Temp;Humidity;BMP_temperature;BMP_pressure;BME280_temperature;BME280_humidity;BME280_pressure;Samples;Min_cycle;Max_cycle;Signal;HPM_P1;HPM_P2
2022/09/19 00:01:43;;;;;;;2.63;1.20;;;;;;;-145.23;100.00;58621.06;5001066;28;20244;-53
2022/09/19 00:04:13;;;;;;;1.00;0.93;;;;;;;-145.23;100.00;58621.06;4990787;28;20233;-53
2022/09/19 00:06:40;;;;;;;1.40;1.20;;;;;;;-145.23;100.00;58621.06;4990657;28;20245;-52
2022/09/19 00:09:10;;;;;;;1.57;1.30;;;;;;;-145.23;100.00;58621.06;4991215;28;20280;-52
2022/09/19 00:11:38;;;;;;;2.30;1.20;;;;;;;-145.23;100.00;58621.06;5005519;28;20573;-52
2022/09/19 00:14:05;;;;;;;1.07;0.93;;;;;;;-145.23;100.00;58621.06;4999702;28;20229;-52
2022/09/19 00:16:34;;;;;;;3.23;1.50;;;;;;;-145.23;100.00;58621.06;5003100;28;20792;-52
2022/09/19 00:19:04;;;;;;;6.03;1.80;;;;;;;-145.23;100.00;58621.06;4993593;28;20237;-52
2022/09/19 00:21:34;;;;;;;3.33;1.30;;;;;;;-145.23;100.00;58621.06;4988980;28;20312;-55
2022/09/19 00:26:46;;;;;;;2.47;1.87;;;;;;;-145.23;100.00;58621.06;4996081;28;20264;-52
2022/09/19 00:29:14;;;;;;;3.50;1.67;;;;;;;-145.23;100.00;58621.06;4990522;28;20261;-52
2022/09/19 00:31:42;;;;;;;5.53;1.50;;;;;;;-145.23;100.00;58621.06;4996799;28;20234;-51
2022/09/19 00:34:09;;;;;;;5.03;1.50;;;;;;;-145.23;100.00;58621.06;4998968;28;20703;-54
2022/09/19 00:36:38;;;;;;;3.00;1.70;;;;;;;-145.23;100.00;58621.06;4994259;28;20234;-54
2022/09/19 00:39:06;;;;;;;3.97;1.57;;;;;;;-145.23;100.00;58621.06;4992373;28;20267;-52
2022/09/19 00:41:33;;;;;;;5.20;1.40;;;;;;;-145.23;100.00;58621.06;4984985;28;21029;-53
2022/09/19 00:44:03;;;;;;;1.93;1.40;;;;;;;-145.23;100.00;58621.06;4988087;28;20245;-51
2022/09/19 00:46:32;;;;;;;2.20;1.40;;;;;;;-145.23;100.00;58621.06;4994272;28;20233;-52
2022/09/19 00:49:00;;;;;;;1.70;1.60;;;;;;;-145.23;100.00;58621.06;5010133;28;20248;-53
2022/09/19 00:51:31;;;;;;;4.40;1.77;;;;;;;-145.23;100.00;58621.06;4997759;28;20233;-52
2022/09/19 00:54:01;;;;;;;6.07;2.47;;;;;;;-145.23;100.00;58621.06;4998416;28;20237;-54
2022/09/19 00:56:28;;;;;;;3.30;1.63;;;;;;;-145.23;100.00;58621.06;4989138;28;20906;-53
2022/09/19 00:58:55;;;;;;;3.63;2.10;;;;;;;-145.23;100.00;58621.06;4992400;28;20237;-54
2022/09/19 01:01:21;;;;;;;4.17;2.00;;;;;;;-145.23;100.00;58621.06;4989184;28;20237;-54
2022/09/19 01:03:48;;;;;;;3.87;2.20;;;;;;;-145.23;100.00;58621.06;5007089;28;20230;-54
2022/09/19 01:06:26;;;;;;;3.87;2.30;;;;;;;-145.23;100.00;58621.06;4996573;28;20980;-53
2022/09/19 01:09:16;;;;;;;4.37;2.23;;;;;;;-145.23;100.00;58621.06;4995613;28;20746;-52
2022/09/19 01:11:57;;;;;;;3.07;2.20;;;;;;;-145.23;100.00;58621.06;4994859;28;20312;-54
2022/09/19 01:14:37;;;;;;;7.97;2.47;;;;;;;-145.23;100.00;58621.06;4995293;28;20233;-53
2022/09/19 01:17:07;;;;;;;7.13;2.23;;;;;;;-145.23;100.00;58621.06;5009617;28;20235;-52
2022/09/19 01:19:54;;;;;;;5.47;1.83;;;;;;;-145.23;100.00;58621.06;4992293;28;20325;-53
2022/09/19 01:22:27;;;;;;;2.40;1.90;;;;;;;-145.23;100.00;58621.06;4998584;28;20293;-52
2022/09/19 01:25:01;;;;;;;2.87;2.23;;;;;;;-145.23;100.00;58621.06;4988260;28;20324;-51
2022/09/19 01:27:40;;;;;;;3.67;1.93;;;;;;;-145.23;100.00;58621.06;4983458;28;20260;-51
2022/09/19 01:30:09;;;;;;;3.00;2.03;;;;;;;-145.23;100.00;58621.06;4987652;28;20248;-53
2022/09/19 01:32:38;;;;;;;3.83;2.20;;;;;;;-145.23;100.00;58621.06;4987029;28;20807;-51
2022/09/19 01:35:07;;;;;;;2.23;2.00;;;;;;;-145.23;100.00;58621.06;4983454;28;20250;-52
2022/09/19 01:37:37;;;;;;;3.33;1.83;;;;;;;-145.23;100.00;58621.06;4990240;28;20221;-52
2022/09/19 01:40:06;;;;;;;3.03;1.73;;;;;;;-145.23;100.00;58621.06;4990578;28;21082;-51
2022/09/19 01:42:33;;;;;;;4.07;2.27;;;;;;;-145.23;100.00;58621.06;4991368;28;20245;-52
2022/09/19 01:45:00;;;;;;;3.23;2.10;;;;;;;-145.23;100.00;58621.06;4999997;28;20229;-51
2022/09/19 01:47:36;;;;;;;2.87;2.60;;;;;;;-145.23;100.00;58621.06;5003186;28;20221;-55
2022/09/19 01:50:07;;;;;;;4.33;2.33;;;;;;;-145.23;100.00;58621.06;4999988;28;20427;-52
2022/09/19 01:53:00;;;;;;;5.63;2.47;;;;;;;-145.23;100.00;58621.06;4987582;28;20498;-54
2022/09/19 01:55:31;;;;;;;2.23;2.03;;;;;;;-145.23;100.00;58621.06;4985334;28;20234;-53
2022/09/19 01:58:05;;;;;;;2.53;2.33;;;;;;;-145.23;100.00;58621.06;4984872;28;20241;-53
2022/09/19 02:00:33;;;;;;;2.30;2.10;;;;;;;-145.23;100.00;58621.06;4986235;28;20256;-53
2022/09/19 02:03:08;;;;;;;4.60;2.97;;;;;;;-145.23;100.00;58621.06;5016079;28;20224;-53
2022/09/19 02:05:39;;;;;;;3.80;2.37;;;;;;;-145.23;100.00;58621.06;4985963;28;20233;-53
2022/09/19 02:08:09;;;;;;;5.00;2.77;;;;;;;-145.23;100.00;58621.06;4990899;28;20241;-53
2022/09/19 02:10:39;;;;;;;7.63;2.97;;;;;;;-145.23;100.00;58621.06;4989403;28;20245;-53
2022/09/19 02:13:09;;;;;;;4.50;2.33;;;;;;;-145.23;100.00;58621.06;4985041;28;20724;-53
2022/09/19 02:15:36;;;;;;;3.37;2.50;;;;;;;-145.23;100.00;58621.06;4996278;28;20233;-53
2022/09/19 02:18:08;;;;;;;4.00;2.73;;;;;;;-145.23;100.00;58621.06;4989796;28;20237;-53
2022/09/19 02:20:36;;;;;;;5.10;3.17;;;;;;;-145.23;100.00;58621.06;4991772;28;20229;-53
2022/09/19 02:23:05;;;;;;;5.67;2.77;;;;;;;-145.23;100.00;58621.06;4992624;28;20237;-53
2022/09/19 02:25:34;;;;;;;3.43;2.40;;;;;;;-145.23;100.00;58621.06;4988717;28;20225;-53
2022/09/19 02:28:03;;;;;;;3.67;2.60;;;;;;;-145.23;100.00;58621.06;4993160;28;20241;-53
2022/09/19 02:30:30;;;;;;;3.33;2.40;;;;;;;-145.23;100.00;58621.06;4991212;28;20235;-53
2022/09/19 02:32:57;;;;;;;7.43;2.67;;;;;;;-145.23;100.00;58621.06;5000850;28;20237;-53
2022/09/19 02:35:38;;;;;;;3.80;2.50;;;;;;;-145.23;100.00;58621.06;4998243;28;20233;-53
2022/09/19 02:38:10;;;;;;;2.70;2.50;;;;;;;-145.23;100.00;58621.06;4992999;28;20249;-53
2022/09/19 02:40:44;;;;;;;5.70;3.00;;;;;;;-145.23;100.00;58621.06;4983230;28;20660;-53
2022/09/19 02:43:15;;;;;;;4.30;3.17;;;;;;;-145.23;100.00;58621.06;4999383;28;20650;-52
2022/09/19 02:45:44;;;;;;;7.10;3.07;;;;;;;-145.23;100.00;58621.06;5014330;28;20311;-53
2022/09/19 02:48:14;;;;;;;5.60;3.40;;;;;;;-145.23;100.00;58621.06;4992131;28;20225;-52
2022/09/19 02:50:47;;;;;;;7.30;3.00;;;;;;;-145.23;100.00;58621.06;4994271;28;20241;-53
2022/09/19 02:53:16;;;;;;;2.83;2.37;;;;;;;-145.23;100.00;58621.06;4993504;28;20264;-51
2022/09/19 02:55:47;;;;;;;4.43;2.57;;;;;;;-145.23;100.00;58621.06;4990095;28;20225;-51
2022/09/19 02:58:15;;;;;;;5.13;2.90;;;;;;;-145.23;100.00;58621.06;5019265;28;20301;-52
2022/09/19 03:00:42;;;;;;;5.60;2.83;;;;;;;-145.23;100.00;58621.06;5000296;28;20287;-52
2022/09/19 03:05:56;;;;;;;3.33;2.57;;;;;;;-145.23;100.00;58621.06;4996342;28;20233;-53
2022/09/19 03:08:24;;;;;;;3.30;2.80;;;;;;;-145.23;100.00;58621.06;4989567;28;20288;-53
2022/09/19 03:10:54;;;;;;;6.10;2.67;;;;;;;-145.23;100.00;58621.06;4990153;28;20734;-55
2022/09/19 03:13:22;;;;;;;5.40;3.23;;;;;;;-145.23;100.00;58621.06;4990140;28;20221;-54
2022/09/19 03:15:52;;;;;;;3.83;3.07;;;;;;;-145.23;100.00;58621.06;4993517;28;20233;-53
2022/09/19 03:18:19;;;;;;;4.30;3.03;;;;;;;-145.23;100.00;58621.06;4997670;28;20241;-55
2022/09/19 03:20:48;;;;;;;4.23;2.83;;;;;;;-145.23;100.00;58621.06;4997565;28;20229;-53
2022/09/19 03:23:18;;;;;;;3.90;3.10;;;;;;;-145.23;100.00;58621.06;4997618;28;20240;-52
2022/09/19 03:25:45;;;;;;;3.67;3.37;;;;;;;-145.23;100.00;58621.06;4998999;28;20236;-54
2022/09/19 03:28:11;;;;;;;3.30;3.00;;;;;;;-145.23;100.00;58621.06;5009328;28;20290;-54
2022/09/19 03:30:38;;;;;;;5.53;3.10;;;;;;;-145.23;100.00;58621.06;4991813;28;20727;-51
2022/09/19 03:33:05;;;;;;;6.43;3.30;;;;;;;-145.23;100.00;58621.06;4992105;28;20240;-52
2022/09/19 03:35:32;;;;;;;3.80;3.07;;;;;;;-145.23;100.00;58621.06;4989836;28;20229;-51
2022/09/19 03:38:01;;;;;;;6.40;3.57;;;;;;;-145.23;100.00;58621.06;4996260;28;20712;-54
2022/09/19 03:40:30;;;;;;;4.50;3.13;;;;;;;-145.23;100.00;58621.06;5007790;28;20226;-53
2022/09/19 03:42:57;;;;;;;3.80;3.50;;;;;;;-145.23;100.00;58621.06;5015784;28;20237;-53
2022/09/19 03:45:23;;;;;;;4.10;3.40;;;;;;;-145.23;100.00;58621.06;5002185;28;20248;-54
2022/09/19 03:47:50;;;;;;;6.00;3.70;;;;;;;-145.23;100.00;58621.06;4996596;28;20237;-53
2022/09/19 03:50:17;;;;;;;5.20;4.40;;;;;;;-145.23;100.00;58621.06;4988241;28;20245;-53
2022/09/19 03:52:48;;;;;;;4.13;3.70;;;;;;;-145.23;100.00;58621.06;5006232;28;20777;-53
2022/09/19 03:55:15;;;;;;;5.97;3.90;;;;;;;-145.23;100.00;58621.06;4995845;28;20852;-53
2022/09/19 03:57:43;;;;;;;4.13;3.77;;;;;;;-145.23;100.00;58621.06;5003181;28;20230;-53
2022/09/19 04:00:10;;;;;;;4.47;3.57;;;;;;;-145.23;100.00;58621.06;5002276;28;20233;-54
2022/09/19 04:02:37;;;;;;;6.77;4.30;;;;;;;-145.23;100.00;58621.06;5001749;28;20248;-53
2022/09/19 04:05:04;;;;;;;5.10;4.23;;;;;;;-145.23;100.00;58621.06;5008625;28;20241;-53
2022/09/19 04:07:30;;;;;;;5.60;3.97;;;;;;;-145.23;100.00;58621.06;4992775;28;20734;-53
2022/09/19 04:09:57;;;;;;;3.97;3.63;;;;;;;-145.23;100.00;58621.06;4991424;28;20245;-53
2022/09/19 04:12:24;;;;;;;3.93;3.57;;;;;;;-145.23;100.00;58621.06;5005252;28;20249;-53
2022/09/19 04:14:52;;;;;;;4.60;3.53;;;;;;;-145.23;100.00;58621.06;5001872;28;20225;-53
2022/09/19 04:17:18;;;;;;;5.13;3.97;;;;;;;-145.23;100.00;58621.06;4995000;28;20261;-54
2022/09/19 04:19:45;;;;;;;3.77;3.47;;;;;;;-145.23;100.00;58621.06;5000927;28;20313;-54
2022/09/19 04:22:11;;;;;;;4.63;3.70;;;;;;;-145.23;100.00;58621.06;4995173;28;20237;-53
2022/09/19 04:24:42;;;;;;;6.63;3.90;;;;;;;-145.23;100.00;58621.06;4992467;28;20274;-53
2022/09/19 04:27:12;;;;;;;5.23;4.00;;;;;;;-145.23;100.00;58621.06;5011894;28;20237;-54
2022/09/19 04:29:40;;;;;;;7.00;4.10;;;;;;;-145.23;100.00;58621.06;5004406;28;20794;-53
2022/09/19 04:32:09;;;;;;;4.57;4.10;;;;;;;-145.23;100.00;58621.06;4987611;28;20698;-52
2022/09/19 04:34:35;;;;;;;4.83;3.67;;;;;;;-145.23;100.00;58621.06;4994396;28;20242;-53
2022/09/19 04:37:03;;;;;;;4.80;4.33;;;;;;;-145.23;100.00;58621.06;4992177;28;20505;-53
2022/09/19 04:39:30;;;;;;;5.63;3.60;;;;;;;-145.23;100.00;58621.06;4997714;28;20237;-52
2022/09/19 04:41:58;;;;;;;4.37;3.97;;;;;;;-145.23;100.00;58621.06;5004036;28;20240;-53
2022/09/19 04:44:28;;;;;;;8.07;4.03;;;;;;;-145.23;100.00;58621.06;4997298;28;20315;-54
2022/09/19 04:46:55;;;;;;;3.87;3.20;;;;;;;-145.23;100.00;58621.06;4996408;28;20244;-54
2022/09/19 04:49:22;;;;;;;4.57;4.17;;;;;;;-145.23;100.00;58621.06;4997308;28;20233;-55
2022/09/19 04:51:49;;;;;;;5.53;4.20;;;;;;;-145.23;100.00;58621.06;4994921;28;20269;-54
2022/09/19 04:54:16;;;;;;;4.53;3.70;;;;;;;-145.23;100.00;58621.06;4996465;28;20470;-54
2022/09/19 04:56:44;;;;;;;4.30;3.90;;;;;;;-145.23;100.00;58621.06;5012201;28;20232;-53
2022/09/19 04:59:11;;;;;;;4.70;4.30;;;;;;;-145.23;100.00;58621.06;4986233;28;20335;-53
2022/09/19 05:01:38;;;;;;;4.07;3.67;;;;;;;-145.23;100.00;58621.06;4995146;28;20271;-52
2022/09/19 05:04:04;;;;;;;3.83;3.53;;;;;;;-145.23;100.00;58621.06;4990067;28;20242;-52
2022/09/19 05:06:32;;;;;;;3.53;3.23;;;;;;;-145.23;100.00;58621.06;4995250;28;20261;-52
2022/09/19 05:08:59;;;;;;;3.57;3.27;;;;;;;-145.23;100.00;58621.06;4997030;28;20249;-53
2022/09/19 05:11:27;;;;;;;4.37;3.97;;;;;;;-145.23;100.00;58621.06;4987288;28;20743;-53
2022/09/19 05:13:54;;;;;;;5.27;3.87;;;;;;;-145.23;100.00;58621.06;4992022;28;20238;-53
2022/09/19 05:16:20;;;;;;;4.43;3.67;;;;;;;-145.23;100.00;58621.06;4991938;28;20239;-53
2022/09/19 05:18:49;;;;;;;4.47;3.57;;;;;;;-145.23;100.00;58621.06;4993774;28;20611;-53
2022/09/19 05:21:16;;;;;;;4.93;3.70;;;;;;;-145.23;100.00;58621.06;4994015;28;20249;-53
2022/09/19 05:23:44;;;;;;;3.83;3.43;;;;;;;-145.23;100.00;58621.06;5003666;28;20265;-53
2022/09/19 05:26:15;;;;;;;7.00;4.13;;;;;;;-145.23;100.00;58621.06;4991031;28;20245;-53
2022/09/19 05:28:42;;;;;;;4.47;4.07;;;;;;;-145.23;100.00;58621.06;4990317;28;20316;-53
2022/09/19 05:31:09;;;;;;;4.37;3.77;;;;;;;-145.23;100.00;58621.06;4993869;28;20296;-51
2022/09/19 05:33:36;;;;;;;5.63;3.50;;;;;;;-145.23;100.00;58621.06;4996488;28;20221;-53
2022/09/19 05:36:04;;;;;;;4.43;3.50;;;;;;;-145.23;100.00;58621.06;4996054;28;20292;-52
2022/09/19 05:38:32;;;;;;;3.23;2.60;;;;;;;-145.23;100.00;58621.06;4994883;28;20246;-52
2022/09/19 05:41:01;;;;;;;4.33;3.67;;;;;;;-145.23;100.00;58621.06;4996285;28;20236;-52
2022/09/19 05:43:28;;;;;;;3.20;2.90;;;;;;;-145.23;100.00;58621.06;4994038;28;20226;-52
2022/09/19 05:45:55;;;;;;;3.47;3.10;;;;;;;-145.23;100.00;58621.06;4993446;28;20240;-53
2022/09/19 05:48:23;;;;;;;2.87;2.57;;;;;;;-145.23;100.00;58621.06;4993509;28;20237;-53
2022/09/19 05:50:50;;;;;;;5.50;3.57;;;;;;;-145.23;100.00;58621.06;4990339;28;20241;-53
2022/09/19 05:56:04;;;;;;;5.43;3.40;;;;;;;-145.23;100.00;58621.06;5001862;28;20314;-54
2022/09/19 05:58:33;;;;;;;2.50;2.30;;;;;;;-145.23;100.00;58621.06;4986618;28;20238;-57
2022/09/19 06:01:02;;;;;;;8.10;2.87;;;;;;;-145.23;100.00;58621.06;4987628;28;20325;-53
2022/09/19 06:03:29;;;;;;;3.40;3.10;;;;;;;-145.23;100.00;58621.06;5004627;28;20237;-53
2022/09/19 06:05:56;;;;;;;2.87;2.50;;;;;;;-145.23;100.00;58621.06;4995257;28;20245;-53
2022/09/19 06:08:22;;;;;;;5.33;2.83;;;;;;;-145.23;100.00;58621.06;4992692;28;20529;-53
2022/09/19 06:10:50;;;;;;;3.80;2.83;;;;;;;-145.23;100.00;58621.06;4995198;28;20256;-53
2022/09/19 06:13:19;;;;;;;3.17;2.67;;;;;;;-145.23;100.00;58621.06;4999671;28;20221;-54
2022/09/19 06:15:46;;;;;;;4.50;2.10;;;;;;;-145.23;100.00;58621.06;5004627;28;20229;-54
2022/09/19 06:18:13;;;;;;;2.57;2.37;;;;;;;-145.23;100.00;58621.06;4994070;28;20635;-52
2022/09/19 06:20:40;;;;;;;2.47;2.30;;;;;;;-145.23;100.00;58621.06;4994198;28;20275;-52
2022/09/19 06:23:10;;;;;;;5.73;2.27;;;;;;;-145.23;100.00;58621.06;5004008;28;20260;-52
2022/09/19 06:25:38;;;;;;;5.57;2.83;;;;;;;-145.23;100.00;58621.06;5011154;28;20221;-53
2022/09/19 06:28:06;;;;;;;3.93;2.70;;;;;;;-145.23;100.00;58621.06;5013724;28;20256;-52
2022/09/19 06:30:34;;;;;;;3.17;2.47;;;;;;;-145.23;100.00;58621.06;5007102;28;20236;-52
2022/09/19 06:33:01;;;;;;;4.00;2.37;;;;;;;-145.23;100.00;58621.06;5013902;28;20240;-51
2022/09/19 06:35:31;;;;;;;3.73;2.33;;;;;;;-145.23;100.00;58621.06;5014958;28;20338;-53
2022/09/19 06:37:59;;;;;;;4.20;2.43;;;;;;;-145.23;100.00;58621.06;4992307;28;20690;-52
2022/09/19 06:40:26;;;;;;;4.13;2.57;;;;;;;-145.23;100.00;58621.06;4996696;28;20312;-53
2022/09/19 06:42:58;;;;;;;4.57;2.03;;;;;;;-145.23;100.00;58621.06;4994573;28;20244;-53
2022/09/19 06:45:25;;;;;;;2.10;2.00;;;;;;;-145.23;100.00;58621.06;5015530;28;20672;-52
2022/09/19 06:47:58;;;;;;;2.67;2.47;;;;;;;-145.23;100.00;58621.06;5005545;28;20643;-52
2022/09/19 06:50:25;;;;;;;5.40;2.63;;;;;;;-145.23;100.00;58621.06;4999985;28;20747;-52
2022/09/19 06:52:51;;;;;;;3.10;2.70;;;;;;;-145.23;100.00;58621.06;4996325;28;20233;-53
2022/09/19 06:55:18;;;;;;;5.70;3.23;;;;;;;-145.23;100.00;58621.06;4997906;28;20234;-53
2022/09/19 06:57:44;;;;;;;2.50;2.27;;;;;;;-145.23;100.00;58621.06;4998018;28;20226;-57
2022/09/19 07:00:12;;;;;;;2.20;2.00;;;;;;;-145.23;100.00;58621.06;5014149;28;20487;-54
2022/09/19 07:02:38;;;;;;;2.33;2.13;;;;;;;-145.23;100.00;58621.06;5013692;28;20254;-52
2022/09/19 07:05:08;;;;;;;2.17;1.70;;;;;;;-145.23;100.00;58621.06;4996771;28;20237;-52
2022/09/19 07:07:34;;;;;;;3.47;2.00;;;;;;;-145.23;100.00;58621.06;4996706;28;20230;-52
2022/09/19 07:10:01;;;;;;;2.43;2.23;;;;;;;-145.23;100.00;58621.06;4996787;28;20249;-53
2022/09/19 07:12:27;;;;;;;3.47;1.80;;;;;;;-145.23;100.00;58621.06;4994809;28;20232;-52
2022/09/19 07:14:54;;;;;;;2.97;1.67;;;;;;;-145.23;100.00;58621.06;5000853;28;20240;-51
2022/09/19 07:17:20;;;;;;;1.70;1.60;;;;;;;-145.23;100.00;58621.06;4999756;28;20467;-55
2022/09/19 07:19:47;;;;;;;2.30;1.73;;;;;;;-145.23;100.00;58621.06;5002198;28;20244;-51
2022/09/19 07:22:15;;;;;;;3.07;1.73;;;;;;;-145.23;100.00;58621.06;5008825;28;20240;-52
2022/09/19 07:24:41;;;;;;;2.13;1.57;;;;;;;-145.23;100.00;58621.06;5002776;28;20332;-53
2022/09/19 07:27:08;;;;;;;1.60;1.50;;;;;;;-145.23;100.00;58621.06;4993663;28;20230;-53
2022/09/19 07:29:34;;;;;;;1.40;1.30;;;;;;;-145.23;100.00;58621.06;4994670;28;20234;-52
2022/09/19 07:32:01;;;;;;;3.03;2.03;;;;;;;-145.23;100.00;58621.06;4996404;28;20319;-53
2022/09/19 07:34:28;;;;;;;1.57;1.47;;;;;;;-145.23;100.00;58621.06;5003975;28;20236;-52
2022/09/19 07:36:55;;;;;;;3.20;2.10;;;;;;;-145.23;100.00;58621.06;4996207;28;20238;-52
2022/09/19 07:39:22;;;;;;;3.10;1.90;;;;;;;-145.23;100.00;58621.06;4992606;28;20244;-53
2022/09/19 07:41:49;;;;;;;1.30;1.20;;;;;;;-145.23;100.00;58621.06;4990787;28;20242;-53
2022/09/19 07:44:15;;;;;;;1.70;1.60;;;;;;;-145.23;100.00;58621.06;4994901;28;20230;-56
2022/09/19 07:47:26;;;;;;;4.83;1.97;;;;;;;-145.23;100.00;58621.06;4992670;28;20234;-52
2022/09/19 07:49:28;;;;;;;1.88;1.70;;;;;;;-145.23;100.00;58621.06;4995671;28;20283;-53
2022/09/19 07:51:55;;;;;;;3.40;2.37;;;;;;;-145.23;100.00;58621.06;4993590;28;20645;-52
2022/09/19 07:54:23;;;;;;;2.57;2.00;;;;;;;-145.23;100.00;58621.06;4991417;28;20240;-53
2022/09/19 07:56:49;;;;;;;2.10;2.00;;;;;;;-145.23;100.00;58621.06;4994794;28;20240;-53
2022/09/19 07:59:17;;;;;;;1.52;1.20;;;;;;;-145.23;100.00;58621.06;4993890;28;20245;-52
2022/09/19 08:01:43;;;;;;;4.70;1.90;;;;;;;-145.23;100.00;58621.06;4992806;28;20652;-53
2022/09/19 08:04:10;;;;;;;1.42;1.10;;;;;;;-145.23;100.00;58621.06;4995413;28;20442;-52
2022/09/19 08:06:36;;;;;;;1.23;1.20;;;;;;;-145.23;100.00;58621.06;4996152;28;20727;-52
2022/09/19 08:09:03;;;;;;;1.95;1.75;;;;;;;-145.23;100.00;58621.06;4991589;28;20259;-53
2022/09/19 08:11:35;;;;;;;1.92;1.77;;;;;;;-145.23;100.00;58621.06;5005404;28;20224;-52
2022/09/19 08:14:02;;;;;;;1.40;1.30;;;;;;;-145.23;100.00;58621.06;4994000;28;20229;-51
2022/09/19 08:16:28;;;;;;;6.03;1.50;;;;;;;-145.23;100.00;58621.06;4993749;28;20238;-52
2022/09/19 08:18:54;;;;;;;2.85;1.45;;;;;;;-145.23;100.00;58621.06;4994445;28;20234;-52
2022/09/19 08:21:21;;;;;;;1.50;1.40;;;;;;;-145.23;100.00;58621.06;4993059;28;20261;-52
2022/09/19 08:23:48;;;;;;;3.15;1.40;;;;;;;-145.23;100.00;58621.06;4988633;28;20735;-52
2022/09/19 08:26:14;;;;;;;3.40;1.45;;;;;;;-145.23;100.00;58621.06;4989224;28;20238;-54
2022/09/19 08:28:42;;;;;;;3.45;1.35;;;;;;;-145.23;100.00;58621.06;4991691;28;20234;-54
2022/09/19 08:31:08;;;;;;;1.77;1.25;;;;;;;-145.23;100.00;58621.06;4997219;28;20248;-53
2022/09/19 08:33:35;;;;;;;1.23;1.15;;;;;;;-145.23;100.00;58621.06;4993842;28;20257;-52
2022/09/19 08:36:02;;;;;;;1.73;1.00;;;;;;;-145.23;100.00;58621.06;4995086;28;20234;-52
2022/09/19 08:38:28;;;;;;;1.35;0.93;;;;;;;-145.23;100.00;58621.06;4988251;28;20229;-52
2022/09/19 08:41:09;;;;;;;3.45;1.15;;;;;;;-145.23;100.00;58621.06;4987435;28;20238;-52
2022/09/19 08:43:43;;;;;;;1.45;1.00;;;;;;;-145.23;100.00;58621.06;4987038;28;20260;-52
2022/09/19 08:46:14;;;;;;;2.35;1.17;;;;;;;-145.23;100.00;58621.06;4987035;28;20526;-53
2022/09/19 08:48:49;;;;;;;3.22;1.35;;;;;;;-145.23;100.00;58621.06;4991947;28;20326;-53
2022/09/19 08:51:20;;;;;;;1.73;1.00;;;;;;;-145.23;100.00;58621.06;4992667;28;20283;-53
2022/09/19 08:53:51;;;;;;;1.50;1.20;;;;;;;-145.23;100.00;58621.06;4992321;28;20770;-52
2022/09/19 08:56:19;;;;;;;3.00;0.90;;;;;;;-145.23;100.00;58621.06;5007219;28;20878;-52
2022/09/19 08:58:49;;;;;;;1.00;0.90;;;;;;;-145.23;100.00;58621.06;4996262;28;20628;-53
2022/09/19 09:01:16;;;;;;;1.10;1.00;;;;;;;-145.23;100.00;58621.06;4990968;28;20225;-53
2022/09/19 09:03:51;;;;;;;2.08;1.30;;;;;;;-145.23;100.00;58621.06;5000100;28;20851;-53
2022/09/19 09:06:27;;;;;;;2.10;0.95;;;;;;;-145.23;100.00;58621.06;4993607;28;20224;-53
2022/09/19 09:09:02;;;;;;;1.17;0.90;;;;;;;-145.23;100.00;58621.06;4991844;28;20332;-53
2022/09/19 09:11:37;;;;;;;4.45;1.20;;;;;;;-145.23;100.00;58621.06;5000768;28;20929;-53
2022/09/19 09:14:15;;;;;;;0.80;0.80;;;;;;;-145.23;100.00;58621.06;4978137;28;21147;-53
2022/09/19 09:16:53;;;;;;;0.73;0.73;;;;;;;-145.23;100.00;58621.06;4991243;28;20252;-53
2022/09/19 09:19:38;;;;;;;1.35;0.85;;;;;;;-145.23;100.00;58621.06;4990783;28;20291;-53
2022/09/19 09:22:11;;;;;;;1.13;0.73;;;;;;;-145.23;100.00;58621.06;4993636;28;20276;-53
2022/09/19 09:24:40;;;;;;;5.97;1.33;;;;;;;-145.23;100.00;58621.06;4994789;28;20229;-53
2022/09/19 09:27:11;;;;;;;0.75;0.75;;;;;;;-145.23;100.00;58621.06;4997457;28;20449;-54
2022/09/19 09:29:42;;;;;;;3.13;1.05;;;;;;;-145.23;100.00;58621.06;4998654;28;20864;-53
2022/09/19 09:32:15;;;;;;;2.67;1.20;;;;;;;-145.23;100.00;58621.06;4989795;28;20237;-53
2022/09/19 09:34:46;;;;;;;1.85;1.02;;;;;;;-145.23;100.00;58621.06;4990868;28;20241;-52
2022/09/19 09:37:20;;;;;;;0.60;0.60;;;;;;;-145.23;100.00;58621.06;4995373;28;20226;-53
2022/09/19 09:40:00;;;;;;;1.77;1.00;;;;;;;-145.23;100.00;58621.06;4991897;28;20253;-52
2022/09/19 09:42:32;;;;;;;6.93;1.90;;;;;;;-145.23;100.00;58621.06;4986585;28;20864;-53
2022/09/19 09:45:04;;;;;;;0.88;0.88;;;;;;;-145.23;100.00;58621.06;4995883;28;20836;-52
2022/09/19 09:47:43;;;;;;;1.00;0.75;;;;;;;-145.23;100.00;58621.06;4998127;28;20232;-52
2022/09/19 09:50:25;;;;;;;1.75;0.88;;;;;;;-145.23;100.00;58621.06;4987517;28;20908;-52
2022/09/19 09:52:55;;;;;;;0.50;0.50;;;;;;;-145.23;100.00;58621.06;4991736;28;20229;-52
2022/09/19 09:58:34;;;;;;;1.20;0.82;;;;;;;-145.23;100.00;58621.06;4991032;28;20236;-52
2022/09/19 10:04:06;;;;;;;6.32;1.58;;;;;;;-145.23;100.00;58621.06;4985080;28;20734;-51
2022/09/19 10:06:35;;;;;;;2.97;0.93;;;;;;;-145.23;100.00;58621.06;4989357;28;20226;-53
2022/09/19 10:09:06;;;;;;;1.88;1.08;;;;;;;-145.23;100.00;58621.06;4996972;28;20260;-52
2022/09/19 10:11:39;;;;;;;1.80;0.90;;;;;;;-145.23;100.00;58621.06;5001356;28;20232;-52
2022/09/19 10:14:12;;;;;;;1.35;0.88;;;;;;;-145.23;100.00;58621.06;4995517;28;20669;-52
2022/09/19 10:16:46;;;;;;;1.27;0.60;;;;;;;-145.23;100.00;58621.06;4996978;28;20276;-53
2022/09/19 10:19:19;;;;;;;1.27;0.70;;;;;;;-145.23;100.00;58621.06;4987770;28;20245;-53
2022/09/19 10:21:47;;;;;;;3.80;1.17;;;;;;;-145.23;100.00;58621.06;4986667;28;20225;-53
2022/09/19 10:24:41;;;;;;;4.90;1.23;;;;;;;-145.23;100.00;58621.06;4990259;28;20614;-53
2022/09/19 10:27:11;;;;;;;4.43;1.27;;;;;;;-145.23;100.00;58621.06;4985598;28;20225;-53
2022/09/19 10:29:49;;;;;;;1.40;1.17;;;;;;;-145.23;100.00;58621.06;4989903;28;20292;-52
2022/09/19 10:32:21;;;;;;;1.67;1.00;;;;;;;-145.23;100.00;58621.06;4992132;28;20622;-52
2022/09/19 10:34:50;;;;;;;1.70;0.73;;;;;;;-145.23;100.00;58621.06;4990311;28;20241;-52
2022/09/19 10:37:18;;;;;;;0.60;0.50;;;;;;;-145.23;100.00;58621.06;4989519;28;20233;-51
2022/09/19 10:39:48;;;;;;;0.70;0.70;;;;;;;-145.23;100.00;58621.06;4991754;28;20241;-52
2022/09/19 10:42:34;;;;;;;0.63;0.63;;;;;;;-145.23;100.00;58621.06;4989581;28;20284;-51
2022/09/19 10:45:18;;;;;;;5.57;0.97;;;;;;;-145.23;100.00;58621.06;4992663;28;20241;-52
2022/09/19 10:47:47;;;;;;;1.57;0.90;;;;;;;-145.23;100.00;58621.06;4995099;28;20238;-51
2022/09/19 10:50:16;;;;;;;1.20;0.83;;;;;;;-145.23;100.00;58621.06;4993855;28;20237;-52
2022/09/19 10:52:44;;;;;;;2.60;0.97;;;;;;;-145.23;100.00;58621.06;4991799;28;20237;-55
2022/09/19 10:55:14;;;;;;;0.67;0.67;;;;;;;-145.23;100.00;58621.06;4995615;28;20245;-53
2022/09/19 10:57:45;;;;;;;2.17;0.63;;;;;;;-145.23;100.00;58621.06;4989236;28;20222;-54
2022/09/19 11:00:31;;;;;;;1.80;1.10;;;;;;;-145.23;100.00;58621.06;4996470;28;20245;-56
2022/09/19 11:03:01;;;;;;;0.73;0.73;;;;;;;-145.23;100.00;58621.06;4985001;28;20238;-54
2022/09/19 11:05:29;;;;;;;0.97;0.87;;;;;;;-145.23;100.00;58621.06;4992446;28;20228;-54
2022/09/19 11:07:56;;;;;;;1.37;0.80;;;;;;;-145.23;100.00;58621.06;4993364;28;20711;-56
2022/09/19 11:10:41;;;;;;;2.47;0.90;;;;;;;-145.23;100.00;58621.06;5017725;28;20839;-56
2022/09/19 11:13:12;;;;;;;0.63;0.63;;;;;;;-145.23;100.00;58621.06;5002953;28;20229;-57
2022/09/19 11:15:49;;;;;;;2.27;1.17;;;;;;;-145.23;100.00;58621.06;5003050;28;20229;-62
2022/09/19 11:18:22;;;;;;;3.43;1.60;;;;;;;-145.23;100.00;58621.06;4999221;28;20773;-59
2022/09/19 11:20:53;;;;;;;0.97;0.97;;;;;;;-145.23;100.00;58621.06;4995119;28;20238;-59
2022/09/19 11:23:45;;;;;;;2.37;1.17;;;;;;;-145.23;100.00;58621.06;4995760;28;20233;-63
2022/09/19 11:26:22;;;;;;;1.20;1.10;;;;;;;-145.23;100.00;58621.06;4990633;28;20229;-57
2022/09/19 11:29:02;;;;;;;4.60;1.97;;;;;;;-145.23;100.00;58621.06;4994273;28;20595;-58
2022/09/19 11:31:36;;;;;;;2.43;1.33;;;;;;;-145.23;100.00;58621.06;5007521;28;20231;-58
2022/09/19 11:34:11;;;;;;;2.27;1.20;;;;;;;-145.23;100.00;58621.06;5000062;28;20384;-56
2022/09/19 11:36:46;;;;;;;1.20;1.10;;;;;;;-145.23;100.00;58621.06;4994742;28;20341;-57